»·PEaware :: UAL2993 KLAX-KSFO

UAL2993 :: KLAX-KSFO

FLIGHT INFORMATION

Flight Status: Arrived
Operator:
United Airlines
More flights by this operator :: More flights under this callsign
Pilot: Julien G. (19066)
Aircraft: BOEING 737-900
(B739)
More flights by this aircraft type
Origin: KLAX Los Angeles Intl
United States
Destination: KSFO San Francisco Intl
United States
More flights between these airports :: More routes between these airports
Route: +SUMMR1 STOKD SERFR SERFR3
File this flight plan on PilotEdge
Remarks: RMK / POWERED BY SIMBRIEF
Altitude:
(Current/Filed)
38,000ft
Speed:
(Current/Filed)
456kts
Departed: 29-Apr-18 09:34 AM
Arrived: 29-Apr-18 10:36 AM
Distance/Time
Traveled:
293nm/1:02
Distance/Time
To Go:
Arrived

Flight Plot

Page will automatically refresh every two minutes.

Flight plan parsing failed; only flown route is shown


Map Options




Map Legend


Flown Route
Filed Route
Departure Airport
Arrival Airport
Navaid (VOR, NDB)
Fix

Horizontal Profiles

Position Reports

Time Latitude Longitude Heading Altitude Ground
Speed
29-Apr-18 09:10 33.941653 -118.400254 82 116ft 0kts
29-Apr-18 09:11 33.941653 -118.400254 82 116ft 0kts
29-Apr-18 09:12 33.941653 -118.400254 82 116ft 0kts
29-Apr-18 09:13 33.941653 -118.400254 82 116ft 0kts
29-Apr-18 09:14 33.941653 -118.400254 82 116ft 0kts
29-Apr-18 09:15 33.941653 -118.400254 82 116ft 0kts
29-Apr-18 09:16 33.941653 -118.400254 82 116ft 0kts
29-Apr-18 09:17 33.941653 -118.400254 82 116ft 0kts
29-Apr-18 09:18 33.941653 -118.400254 82 116ft 0kts
29-Apr-18 09:19 33.941653 -118.400254 82 116ft 0kts
29-Apr-18 09:20 33.941653 -118.400254 82 116ft 0kts
29-Apr-18 09:21 33.941653 -118.400254 82 116ft 0kts
29-Apr-18 09:22 33.941653 -118.400254 82 116ft 0kts
29-Apr-18 09:24 33.941653 -118.400254 82 116ft 0kts
29-Apr-18 09:25 33.941626 -118.400491 82 117ft 2kts
29-Apr-18 09:26 33.941891 -118.400907 172 118ft 1kts
29-Apr-18 09:26 33.941906 -118.400909 171 118ft 0kts
29-Apr-18 09:27 33.941833 -118.400896 171 118ft 2kts
29-Apr-18 09:28 33.938877 -118.400329 140 116ft 15kts
29-Apr-18 09:29 33.939414 -118.393627 83 107ft 24kts
29-Apr-18 09:30 33.940123 -118.386457 79 103ft 21kts
29-Apr-18 09:31 33.940379 -118.383431 118 100ft 0kts
29-Apr-18 09:32 33.937851 -118.382947 174 99ft 8kts
29-Apr-18 09:34 33.935018 -118.405489 261 171ft 172kts
29-Apr-18 09:34 33.929878 -118.454450 263 2084ft 204kts
29-Apr-18 09:35 33.925403 -118.535928 262 4303ft 262kts
29-Apr-18 09:36 33.918330 -118.622141 263 7646ft 262kts
29-Apr-18 09:37 33.916802 -118.707827 270 10501ft 270kts
29-Apr-18 09:38 33.916464 -118.805268 271 11989ft 298kts
29-Apr-18 09:39 33.918368 -118.905025 274 14054ft 302kts
29-Apr-18 09:40 33.921773 -119.007180 279 17210ft 312kts
29-Apr-18 09:41 33.962254 -119.098596 302 20105ft 319kts
29-Apr-18 09:42 34.010787 -119.189739 308 22693ft 329kts
29-Apr-18 09:43 34.086268 -119.255593 322 24970ft 342kts
29-Apr-18 09:44 34.163887 -119.320817 322 27004ft 351kts
29-Apr-18 09:45 34.244480 -119.389672 321 28842ft 360kts
29-Apr-18 09:46 34.325733 -119.459490 321 30898ft 356kts
29-Apr-18 09:47 34.405194 -119.527994 321 32714ft 349kts
29-Apr-18 09:48 34.474134 -119.608253 313 34223ft 342kts
29-Apr-18 09:49 34.540055 -119.689571 312 35479ft 339kts
29-Apr-18 09:50 34.605528 -119.770660 312 36553ft 337kts
29-Apr-18 09:51 34.671034 -119.851949 312 37392ft 337kts
29-Apr-18 09:52 34.736539 -119.933247 312 38075ft 338kts
29-Apr-18 09:53 34.803503 -120.016577 312 38101ft 352kts
29-Apr-18 09:54 34.872971 -120.103223 312 38101ft 362kts
29-Apr-18 09:55 34.943657 -120.191452 311 38103ft 367kts
29-Apr-18 09:56 35.014581 -120.280175 310 38100ft 363kts
29-Apr-18 09:57 35.084224 -120.367509 309 38098ft 359kts
29-Apr-18 09:58 35.156444 -120.449501 312 38115ft 359kts
29-Apr-18 09:59 35.229797 -120.531610 312 38120ft 359kts
29-Apr-18 10:00 35.303339 -120.614083 312 38118ft 359kts
29-Apr-18 10:01 35.376316 -120.696228 312 38136ft 359kts
29-Apr-18 10:02 35.449744 -120.779064 312 38142ft 360kts
29-Apr-18 10:03 35.526290 -120.858066 316 38148ft 363kts
29-Apr-18 10:04 35.606643 -120.932695 316 38146ft 363kts
29-Apr-18 10:05 35.686717 -121.007202 316 38144ft 362kts
29-Apr-18 10:06 35.766545 -121.081640 317 38140ft 359kts
29-Apr-18 10:07 35.843462 -121.153427 317 36054ft 351kts
29-Apr-18 10:08 35.921716 -121.226757 317 33645ft 358kts
29-Apr-18 10:09 36.000796 -121.301019 317 31512ft 366kts
29-Apr-18 10:10 36.079901 -121.374631 321 29802ft 356kts
29-Apr-18 10:11 36.158665 -121.436002 322 28079ft 351kts
29-Apr-18 10:12 36.240205 -121.499432 323 26194ft 344kts
29-Apr-18 10:13 36.319265 -121.561126 323 25352ft 338kts
29-Apr-18 10:14 36.397994 -121.622741 323 22962ft 333kts
29-Apr-18 10:15 36.475637 -121.683809 323 20845ft 337kts
29-Apr-18 10:16 36.553139 -121.745016 323 18991ft 327kts
29-Apr-18 10:17 36.628525 -121.804690 324 17262ft 316kts
29-Apr-18 10:18 36.702484 -121.863390 324 15349ft 314kts
29-Apr-18 10:19 36.779862 -121.907813 343 13843ft 311kts
29-Apr-18 10:20 36.864604 -121.930487 344 12373ft 312kts
29-Apr-18 10:21 36.948124 -121.953339 344 10937ft 306kts
29-Apr-18 10:22 37.028311 -121.983591 340 10338ft 302kts
29-Apr-18 10:23 37.107108 -122.014306 340 9451ft 302kts
29-Apr-18 10:24 37.184304 -122.044414 340 8243ft 272kts
29-Apr-18 10:25 37.253043 -122.071291 340 7184ft 262kts
29-Apr-18 10:26 37.321567 -122.098189 340 6113ft 253kts
29-Apr-18 10:27 37.386138 -122.123534 341 5105ft 233kts
29-Apr-18 10:28 37.444250 -122.146382 342 4253ft 210kts
29-Apr-18 10:29 37.497824 -122.164644 346 3434ft 191kts
29-Apr-18 10:30 37.530106 -122.201854 267 2759ft 168kts
29-Apr-18 10:31 37.556624 -122.242803 322 1988ft 154kts
29-Apr-18 10:32 37.579842 -122.282734 298 1346ft 143kts
29-Apr-18 10:33 37.598124 -122.326222 296 746ft 140kts
29-Apr-18 10:34 37.616435 -122.369584 296 11ft 126kts
29-Apr-18 10:35 37.619619 -122.379261 235 29ft 0kts
29-Apr-18 10:36 37.619212 -122.380939 290 30ft 17kts
29-Apr-18 10:37 37.622344 -122.388467 297 29ft 25kts
29-Apr-18 10:38 37.620062 -122.392409 181 31ft 18kts
29-Apr-18 10:39 37.617801 -122.388897 159 30ft 2kts
29-Apr-18 10:40 37.617708 -122.388852 159 30ft 0kts
29-Apr-18 10:41 37.617708 -122.388852 159 30ft 0kts
29-Apr-18 10:42 37.617708 -122.388852 159 30ft 0kts
29-Apr-18 10:43 37.617708 -122.388852 159 30ft 0kts
29-Apr-18 10:44 37.617708 -122.388852 159 30ft 0kts
29-Apr-18 10:45 37.617708 -122.388852 159 30ft 0kts
29-Apr-18 10:46 37.617708 -122.388852 159 30ft 0kts
29-Apr-18 10:47 37.617708 -122.388852 159 30ft 0kts

Navigation Log

Ident Type
Flight plan parsing failed, navigation log unavailable